createdAt,value
2019-02-12T00:00:29.660Z,3.60
2019-02-12T00:02:58.556Z,3.60
2019-02-12T00:05:27.472Z,3.60
2019-02-12T00:07:59.175Z,3.60
2019-02-12T00:10:28.102Z,3.60
2019-02-12T00:12:57.160Z,3.60
2019-02-12T00:15:25.958Z,3.70
2019-02-12T00:17:55.252Z,3.70
2019-02-12T00:20:24.520Z,3.60
2019-02-12T00:22:57.848Z,3.60
2019-02-12T00:25:26.820Z,3.60
2019-02-12T00:27:56.076Z,3.70
2019-02-12T00:30:25.527Z,3.70
2019-02-12T00:32:54.704Z,3.60
2019-02-12T00:35:23.566Z,3.60
2019-02-12T00:37:54.654Z,3.60
2019-02-12T00:40:23.684Z,3.50
2019-02-12T00:42:52.872Z,3.50
2019-02-12T00:45:21.838Z,3.50
2019-02-12T00:47:50.715Z,3.40
2019-02-12T00:50:19.838Z,3.40
2019-02-12T00:52:48.670Z,3.40
2019-02-12T00:55:17.866Z,3.40
2019-02-12T00:57:46.791Z,3.40
2019-02-12T01:00:16.476Z,3.40
2019-02-12T01:02:45.313Z,3.30
2019-02-12T01:05:14.321Z,3.30
2019-02-12T01:07:45.162Z,3.20
2019-02-12T01:10:14.220Z,3.10
2019-02-12T01:12:45.400Z,3.10
2019-02-12T01:15:17.195Z,3.20
2019-02-12T01:17:46.292Z,3.20
2019-02-12T01:20:15.451Z,3.30
2019-02-12T01:22:44.493Z,3.30
2019-02-12T01:25:14.340Z,3.30
2019-02-12T01:27:43.352Z,3.40
2019-02-12T01:30:16.633Z,3.30
2019-02-12T01:32:45.242Z,3.30
2019-02-12T01:35:14.228Z,3.40
2019-02-12T01:37:43.086Z,3.40
2019-02-12T01:40:13.300Z,3.40
2019-02-12T01:42:42.216Z,3.40
2019-02-12T01:45:12.587Z,3.50
2019-02-12T01:47:41.623Z,3.50
2019-02-12T01:50:12.223Z,3.50
2019-02-12T01:52:41.076Z,3.50
2019-02-12T01:55:10.112Z,3.50
2019-02-12T01:57:38.920Z,3.50
2019-02-12T02:00:09.786Z,3.50
2019-02-12T02:02:38.571Z,3.60
2019-02-12T02:05:08.312Z,3.60
2019-02-12T02:07:37.247Z,3.60
2019-02-12T02:10:07.133Z,3.60
2019-02-12T02:12:36.058Z,3.70
2019-02-12T02:15:05.997Z,3.70
2019-02-12T02:17:34.798Z,3.60
2019-02-12T02:20:04.186Z,3.50
2019-02-12T02:22:33.076Z,3.50
2019-02-12T02:25:01.842Z,3.50
2019-02-12T02:27:30.656Z,3.50
2019-02-12T02:29:59.487Z,3.60
2019-02-12T02:32:28.366Z,3.60
2019-02-12T02:34:57.131Z,3.60
2019-02-12T02:37:25.977Z,3.60
2019-02-12T02:39:54.785Z,3.60
2019-02-12T02:42:23.577Z,3.60
2019-02-12T02:44:52.352Z,3.60
2019-02-12T02:47:21.250Z,3.60
2019-02-12T02:49:50.028Z,3.60
2019-02-12T02:52:18.810Z,3.60
2019-02-12T02:54:47.666Z,3.60
2019-02-12T02:57:16.603Z,3.60
2019-02-12T02:59:45.481Z,3.60
2019-02-12T03:02:14.313Z,3.60
2019-02-12T03:04:43.160Z,3.60
2019-02-12T03:07:11.973Z,3.60
2019-02-12T03:09:40.839Z,3.60
2019-02-12T03:12:09.652Z,3.60
2019-02-12T03:14:38.595Z,3.60
2019-02-12T03:17:07.369Z,3.60
2019-02-12T03:19:36.218Z,3.60
2019-02-12T03:22:05.114Z,3.60
2019-02-12T03:24:33.889Z,3.60
2019-02-12T03:27:02.721Z,3.50
2019-02-12T03:29:31.594Z,3.40
2019-02-12T03:32:00.568Z,3.30
2019-02-12T03:34:29.372Z,3.20
2019-02-12T03:36:58.224Z,3.10
2019-02-12T03:39:27.043Z,3.00
2019-02-12T03:41:55.891Z,2.90
2019-02-12T03:44:24.744Z,2.90
2019-02-12T03:46:53.579Z,2.90
2019-02-12T03:49:22.398Z,2.80
2019-02-12T03:51:51.187Z,2.80
2019-02-12T03:54:20.199Z,2.80
2019-02-12T03:56:49.237Z,2.80
2019-02-12T03:59:18.189Z,2.80
2019-02-12T04:01:46.982Z,2.70
2019-02-12T04:04:16.073Z,2.70
2019-02-12T04:06:44.863Z,2.80
2019-02-12T04:09:13.729Z,2.80
2019-02-12T04:11:42.515Z,2.70
2019-02-12T04:14:11.387Z,2.70
2019-02-12T04:16:40.323Z,2.80
2019-02-12T04:19:09.150Z,2.70
2019-02-12T04:21:38.008Z,2.70
2019-02-12T04:24:06.927Z,2.70
2019-02-12T04:26:35.919Z,2.70
2019-02-12T04:29:05.055Z,2.70
2019-02-12T04:31:33.877Z,2.70
2019-02-12T04:34:02.670Z,2.70
2019-02-12T04:36:31.565Z,2.70
2019-02-12T04:39:00.422Z,2.70
2019-02-12T04:41:29.439Z,2.70
2019-02-12T04:43:58.225Z,2.70
2019-02-12T04:46:27.155Z,2.70
2019-02-12T04:48:56.008Z,2.70
2019-02-12T04:51:24.792Z,2.80
2019-02-12T04:53:56.863Z,2.70
2019-02-12T04:56:25.745Z,2.70
2019-02-12T04:58:54.887Z,2.70
2019-02-12T05:01:23.761Z,2.70
2019-02-12T05:03:52.618Z,2.70
2019-02-12T05:06:21.836Z,2.70
2019-02-12T05:09:10.983Z,2.70
2019-02-12T05:11:40.259Z,2.70
2019-02-12T05:14:09.112Z,2.80
2019-02-12T05:16:38.421Z,2.70
2019-02-12T05:19:07.304Z,2.70
2019-02-12T05:21:36.559Z,2.70
2019-02-12T05:24:05.475Z,2.70
2019-02-12T05:26:34.550Z,2.70
2019-02-12T05:29:03.527Z,2.70
2019-02-12T05:31:32.589Z,2.60
2019-02-12T05:34:01.682Z,2.60
2019-02-12T05:36:30.620Z,2.60
2019-02-12T05:38:59.675Z,2.70
2019-02-12T05:41:28.551Z,2.70
2019-02-12T05:43:57.414Z,2.70
2019-02-12T05:46:26.279Z,2.70
2019-02-12T05:48:55.078Z,2.70
2019-02-12T05:51:23.871Z,2.80
2019-02-12T05:53:52.692Z,2.90
2019-02-12T05:56:21.541Z,3.00
2019-02-12T05:58:50.404Z,3.00
2019-02-12T06:01:19.461Z,3.00
2019-02-12T06:03:48.362Z,3.00
2019-02-12T06:06:17.376Z,3.00
2019-02-12T06:08:46.305Z,3.10
2019-02-12T06:11:15.659Z,3.10
2019-02-12T06:13:44.769Z,3.10
2019-02-12T06:16:15.183Z,3.10
2019-02-12T06:18:44.041Z,3.20
2019-02-12T06:21:12.809Z,3.30
2019-02-12T06:23:41.694Z,3.30
2019-02-12T06:26:10.657Z,3.30
2019-02-12T06:28:39.469Z,3.30
2019-02-12T06:31:08.331Z,3.30
2019-02-12T06:33:37.404Z,3.30
2019-02-12T06:36:06.312Z,3.30
2019-02-12T06:38:35.346Z,3.30
2019-02-12T06:41:04.201Z,3.30
2019-02-12T06:43:33.290Z,3.30
2019-02-12T06:46:02.160Z,3.30
2019-02-12T06:48:31.029Z,3.30
2019-02-12T06:51:00.268Z,3.40
2019-02-12T06:53:29.127Z,3.40
2019-02-12T06:55:57.891Z,3.40
2019-02-12T06:58:26.752Z,3.50
2019-02-12T07:00:55.561Z,3.50
2019-02-12T07:03:48.361Z,3.60
2019-02-12T07:06:35.431Z,3.60
2019-02-12T07:09:33.073Z,3.60
2019-02-12T07:12:47.685Z,3.60
2019-02-12T07:16:05.165Z,3.60
2019-02-12T07:19:10.817Z,3.60
2019-02-12T07:22:01.757Z,3.70
2019-02-12T07:24:49.466Z,3.70
2019-02-12T07:27:56.233Z,3.70
2019-02-12T07:30:39.011Z,3.70
2019-02-12T07:33:23.518Z,3.70
2019-02-12T07:36:24.921Z,3.80
2019-02-12T07:39:09.243Z,3.80
2019-02-12T07:41:45.284Z,3.70
2019-02-12T07:44:20.425Z,3.70
2019-02-12T07:47:31.858Z,3.80
2019-02-12T07:50:30.796Z,3.80
2019-02-12T07:53:41.187Z,3.90
2019-02-12T07:56:43.893Z,4.00
2019-02-12T07:59:50.094Z,4.00
2019-02-12T08:03:17.439Z,4.00
2019-02-12T08:06:08.200Z,4.00
2019-02-12T08:09:08.387Z,4.00
2019-02-12T08:12:04.269Z,4.00
2019-02-12T08:15:00.230Z,4.10
2019-02-12T08:18:03.620Z,4.10
2019-02-12T08:21:04.260Z,4.00
2019-02-12T08:23:58.935Z,4.00
2019-02-12T08:26:49.428Z,4.00
2019-02-12T08:29:59.989Z,3.90
2019-02-12T08:32:53.039Z,3.90
2019-02-12T08:35:57.256Z,3.80
2019-02-12T08:39:04.717Z,3.90
2019-02-12T08:41:56.628Z,4.00
2019-02-12T08:44:34.637Z,4.00
2019-02-12T08:47:40.550Z,4.10
2019-02-12T08:50:31.888Z,4.20
2019-02-12T08:53:28.606Z,4.40
2019-02-12T08:56:38.983Z,4.50
2019-02-12T08:59:30.218Z,4.40
2019-02-12T09:02:27.677Z,4.50
2019-02-12T09:05:16.662Z,4.70
2019-02-12T09:08:09.162Z,4.80
2019-02-12T09:11:18.397Z,4.70
2019-02-12T09:14:40.355Z,4.60
2019-02-12T09:17:27.856Z,4.60
2019-02-12T09:20:45.763Z,4.60
2019-02-12T09:24:00.636Z,4.80
2019-02-12T09:27:09.603Z,5.00
2019-02-12T09:30:01.563Z,5.20
2019-02-12T09:32:59.350Z,5.30
2019-02-12T09:35:55.106Z,5.20
2019-02-12T09:38:53.584Z,5.20
2019-02-12T09:42:02.557Z,5.00
2019-02-12T09:45:13.538Z,5.00
2019-02-12T09:48:17.137Z,5.10
2019-02-12T09:51:21.425Z,5.30
2019-02-12T09:54:26.120Z,5.40
2019-02-12T09:57:33.252Z,5.50
2019-02-12T10:00:31.871Z,5.50
2019-02-12T10:03:46.088Z,5.50
2019-02-12T10:06:34.284Z,5.60
2019-02-12T10:09:47.410Z,5.80
2019-02-12T10:12:31.438Z,5.90
2019-02-12T10:15:25.434Z,5.80
2019-02-12T10:18:21.094Z,5.60
2019-02-12T10:21:03.076Z,5.60
2019-02-12T10:23:46.179Z,5.70
2019-02-12T10:26:17.342Z,5.60
2019-02-12T10:29:36.488Z,5.60
2019-02-12T10:32:08.685Z,5.50
2019-02-12T10:34:34.613Z,5.40
2019-02-12T10:37:03.516Z,5.40
2019-02-12T10:39:32.280Z,5.40
2019-02-12T10:42:01.099Z,5.60
2019-02-12T10:44:29.983Z,5.80
2019-02-12T10:46:58.964Z,6.00
2019-02-12T10:49:27.760Z,6.20
2019-02-12T10:51:56.546Z,6.20
2019-02-12T10:54:28.031Z,6.10
2019-02-12T10:56:55.855Z,5.90
2019-02-12T10:59:24.650Z,5.70
2019-02-12T11:01:53.535Z,5.60
2019-02-12T11:04:22.452Z,5.50
2019-02-12T11:06:51.255Z,5.70
2019-02-12T11:09:20.146Z,5.90
2019-02-12T11:11:48.903Z,6.20
2019-02-12T11:14:17.780Z,6.30
2019-02-12T11:16:46.655Z,6.40
2019-02-12T11:19:15.428Z,6.50
2019-02-12T11:21:44.466Z,6.50
2019-02-12T11:24:13.358Z,6.60
2019-02-12T11:26:42.258Z,6.70
2019-02-12T11:29:11.201Z,6.90
2019-02-12T11:31:40.227Z,7.10
2019-02-12T11:34:09.199Z,7.10
2019-02-12T11:36:37.954Z,7.10
2019-02-12T11:39:07.349Z,6.80
2019-02-12T11:41:37.431Z,6.60
2019-02-12T11:44:08.876Z,6.40
2019-02-12T11:46:41.330Z,6.20
2019-02-12T11:49:10.251Z,6.20
2019-02-12T11:51:39.122Z,6.30
2019-02-12T11:54:08.233Z,6.50
2019-02-12T11:56:37.012Z,6.60
2019-02-12T11:59:05.909Z,6.70
2019-02-12T12:01:34.663Z,6.50
2019-02-12T12:04:03.506Z,6.30
2019-02-12T12:06:32.298Z,6.00
2019-02-12T12:09:01.313Z,5.90
2019-02-12T12:11:30.202Z,5.80
2019-02-12T12:13:59.040Z,5.60
2019-02-12T12:16:27.785Z,5.50
2019-02-12T12:18:56.528Z,5.50
2019-02-12T12:21:25.304Z,5.40
2019-02-12T12:23:54.087Z,5.30
2019-02-12T12:26:22.929Z,5.30
2019-02-12T12:28:51.743Z,5.30
2019-02-12T12:31:20.585Z,5.20
2019-02-12T12:33:49.872Z,5.20
2019-02-12T12:36:18.894Z,5.30
2019-02-12T12:38:47.936Z,5.30
2019-02-12T12:41:18.400Z,5.50
2019-02-12T12:43:50.122Z,5.70
2019-02-12T12:46:18.985Z,5.70
2019-02-12T12:48:47.835Z,5.70
2019-02-12T12:51:16.725Z,5.70
2019-02-12T12:53:45.823Z,5.80
2019-02-12T12:56:14.628Z,5.70
2019-02-12T12:58:43.545Z,5.70
2019-02-12T13:01:12.425Z,5.60
2019-02-12T13:03:41.390Z,5.50
2019-02-12T13:06:11.636Z,5.50
2019-02-12T13:08:43.865Z,5.60
2019-02-12T13:11:12.815Z,5.70
2019-02-12T13:13:41.826Z,5.80
2019-02-12T13:16:10.891Z,5.80
2019-02-12T13:18:39.812Z,5.80
2019-02-12T13:21:08.677Z,5.70
2019-02-12T13:23:37.459Z,5.70
2019-02-12T13:26:06.267Z,5.60
2019-02-12T13:28:35.074Z,5.50
2019-02-12T13:31:04.016Z,5.50
2019-02-12T13:33:32.815Z,5.40
2019-02-12T13:36:01.581Z,5.40
2019-02-12T13:38:30.358Z,5.40
2019-02-12T13:40:59.425Z,5.30
2019-02-12T13:43:28.201Z,5.40
2019-02-12T13:45:57.022Z,5.50
2019-02-12T13:48:25.895Z,5.50
2019-02-12T13:50:54.705Z,5.50
2019-02-12T13:53:23.491Z,5.60
2019-02-12T13:55:54.397Z,5.60
2019-02-12T13:58:23.295Z,5.80
2019-02-12T14:00:52.207Z,6.00
2019-02-12T14:03:22.433Z,6.30
2019-02-12T14:05:52.508Z,6.40
2019-02-12T14:08:21.318Z,6.30
2019-02-12T14:10:50.106Z,6.10
2019-02-12T14:13:18.898Z,5.90
2019-02-12T14:15:47.942Z,5.70
2019-02-12T14:18:16.912Z,5.60
2019-02-12T14:20:45.763Z,5.50
2019-02-12T14:23:14.653Z,5.40
2019-02-12T14:25:43.585Z,5.40
2019-02-12T14:28:12.416Z,5.40
2019-02-12T14:30:41.255Z,5.40
2019-02-12T14:33:10.118Z,5.60
2019-02-12T14:35:39.017Z,5.90
2019-02-12T14:38:07.795Z,6.10
2019-02-12T14:40:36.606Z,6.20
2019-02-12T14:43:13.697Z,6.20
2019-02-12T14:45:35.952Z,6.10
2019-02-12T14:48:05.724Z,6.00
2019-02-12T14:50:34.537Z,5.90
2019-02-12T14:53:03.320Z,5.80
2019-02-12T14:55:33.868Z,5.70
2019-02-12T14:58:02.775Z,5.60
2019-02-12T15:00:31.832Z,5.60
2019-02-12T15:03:00.615Z,5.60
2019-02-12T15:05:29.409Z,5.60
2019-02-12T15:07:58.263Z,5.60
2019-02-12T15:10:27.091Z,5.60
2019-02-12T15:12:55.914Z,5.50
2019-02-12T15:15:24.834Z,5.50
2019-02-12T15:17:53.752Z,5.40
2019-02-12T15:20:22.779Z,5.40
2019-02-12T15:22:53.415Z,5.40
2019-02-12T15:25:22.326Z,5.30
2019-02-12T15:27:51.514Z,5.30
2019-02-12T15:30:20.389Z,5.30
2019-02-12T15:32:49.388Z,5.30
2019-02-12T15:35:18.420Z,5.20
2019-02-12T15:37:56.369Z,5.20
2019-02-12T15:40:25.416Z,5.10
2019-02-12T15:42:54.510Z,5.10
2019-02-12T15:45:23.854Z,5.10
2019-02-12T15:47:53.269Z,5.10
2019-02-12T15:50:22.254Z,5.00
2019-02-12T15:52:58.317Z,4.90
2019-02-12T15:55:29.194Z,4.90
2019-02-12T15:57:57.990Z,4.90
2019-02-12T16:00:26.892Z,4.90
2019-02-12T16:02:56.098Z,4.90
2019-02-12T16:05:26.251Z,4.80
2019-02-12T16:07:55.268Z,4.80
2019-02-12T16:10:24.088Z,4.80
2019-02-12T16:12:53.118Z,4.80
2019-02-12T16:15:24.547Z,4.70
2019-02-12T16:17:52.537Z,4.70
2019-02-12T16:20:21.604Z,4.60
2019-02-12T16:22:50.409Z,4.60
2019-02-12T16:25:19.173Z,4.60
2019-02-12T16:27:47.947Z,4.50
2019-02-12T16:30:17.485Z,4.60
2019-02-12T16:32:46.305Z,4.50
2019-02-12T16:35:15.763Z,4.50
2019-02-12T16:37:44.719Z,4.50
2019-02-12T16:40:14.154Z,4.50
2019-02-12T16:42:42.978Z,4.50
2019-02-12T16:45:20.366Z,4.50
2019-02-12T16:47:49.174Z,4.50
2019-02-12T16:50:17.959Z,4.50
2019-02-12T16:52:46.765Z,4.50
2019-02-12T16:55:15.886Z,4.40
2019-02-12T16:57:45.303Z,4.40
2019-02-12T17:00:15.509Z,4.40
2019-02-12T17:02:44.447Z,4.50
2019-02-12T17:05:14.447Z,4.50
2019-02-12T17:07:44.509Z,4.50
2019-02-12T17:10:13.508Z,4.50
2019-02-12T17:12:42.827Z,4.50
2019-02-12T17:15:13.695Z,4.50
2019-02-12T17:17:44.505Z,4.50
2019-02-12T17:20:17.667Z,4.50
2019-02-12T17:22:46.683Z,4.50
2019-02-12T17:25:15.586Z,4.50
2019-02-12T17:27:45.075Z,4.50
2019-02-12T17:30:14.085Z,4.50
2019-02-12T17:32:42.971Z,4.40
2019-02-12T17:35:12.115Z,4.40
2019-02-12T17:37:41.090Z,4.40
2019-02-12T17:40:10.879Z,4.30
2019-02-12T17:42:46.020Z,4.30
2019-02-12T17:45:15.586Z,4.30
2019-02-12T17:47:44.514Z,4.20
2019-02-12T17:50:15.379Z,4.20
2019-02-12T17:52:44.341Z,4.20
2019-02-12T17:55:13.267Z,4.20
2019-02-12T17:57:42.386Z,4.20
2019-02-12T18:00:15.477Z,4.20
2019-02-12T18:02:44.598Z,4.20
2019-02-12T18:05:17.740Z,4.10
2019-02-12T18:07:54.638Z,4.10
2019-02-12T18:10:29.686Z,4.10
2019-02-12T18:12:58.877Z,4.10
2019-02-12T18:15:28.340Z,4.10
2019-02-12T18:17:57.265Z,4.10
2019-02-12T18:20:26.972Z,4.00
2019-02-12T18:22:56.536Z,4.10
2019-02-12T18:25:25.583Z,4.10
2019-02-12T18:27:54.856Z,4.10
2019-02-12T18:30:23.951Z,4.10
2019-02-12T18:32:56.381Z,4.10
2019-02-12T18:35:28.471Z,4.10
2019-02-12T18:37:57.527Z,4.10
2019-02-12T18:40:26.660Z,4.10
2019-02-12T18:42:55.628Z,4.00
2019-02-12T18:45:32.797Z,4.00
2019-02-12T18:48:01.835Z,4.00
2019-02-12T18:50:31.042Z,4.00
2019-02-12T18:53:00.411Z,4.00
2019-02-12T18:55:29.691Z,4.00
2019-02-12T18:57:58.738Z,4.00
2019-02-12T19:00:28.434Z,4.00
2019-02-12T19:02:58.327Z,4.00
2019-02-12T19:05:28.007Z,4.10
2019-02-12T19:08:00.670Z,4.10
2019-02-12T19:10:30.611Z,4.10
2019-02-12T19:12:59.854Z,4.10
2019-02-12T19:15:29.048Z,4.20
2019-02-12T19:18:02.548Z,4.20
2019-02-12T19:20:32.337Z,4.30
2019-02-12T19:23:01.727Z,4.40
2019-02-12T19:25:32.422Z,4.40
2019-02-12T19:28:02.048Z,4.40
2019-02-12T19:30:31.285Z,4.40
2019-02-12T19:33:01.591Z,4.40
2019-02-12T19:35:34.655Z,4.50
2019-02-12T19:38:04.102Z,4.50
2019-02-12T19:40:33.712Z,4.50
2019-02-12T19:43:02.959Z,4.50
2019-02-12T19:45:32.780Z,4.50
2019-02-12T19:48:02.156Z,4.40
2019-02-12T19:50:31.256Z,4.30
2019-02-12T19:53:00.692Z,4.30
2019-02-12T19:55:31.234Z,4.20
2019-02-12T19:58:00.452Z,4.20
2019-02-12T20:00:29.796Z,4.20
2019-02-12T20:02:59.481Z,4.20
2019-02-12T20:05:28.571Z,4.20
2019-02-12T20:07:58.543Z,4.10
2019-02-12T20:10:27.740Z,4.10
2019-02-12T20:12:56.980Z,4.10
2019-02-12T20:15:26.383Z,4.10
2019-02-12T20:17:58.921Z,4.10
2019-02-12T20:20:34.903Z,4.00
2019-02-12T20:23:28.046Z,4.00
2019-02-12T20:25:57.142Z,4.00
2019-02-12T20:28:28.567Z,4.00
2019-02-12T20:30:57.600Z,4.00
2019-02-12T20:33:28.242Z,4.00
2019-02-12T20:35:58.852Z,4.00
2019-02-12T20:38:30.348Z,3.90
2019-02-12T20:40:59.931Z,4.00
2019-02-12T20:43:32.669Z,4.00
2019-02-12T20:46:01.882Z,4.10
2019-02-12T20:48:31.425Z,4.10
2019-02-12T20:51:00.627Z,4.10
2019-02-12T20:53:30.214Z,4.10
2019-02-12T20:55:59.694Z,4.20
2019-02-12T20:58:31.912Z,4.20
2019-02-12T21:01:08.055Z,4.20
2019-02-12T21:03:37.099Z,4.20
2019-02-12T21:06:06.669Z,4.20
2019-02-12T21:08:36.309Z,4.20
2019-02-12T21:11:05.714Z,4.20
2019-02-12T21:13:34.607Z,4.30
2019-02-12T21:16:13.600Z,4.30
2019-02-12T21:18:43.570Z,4.30
2019-02-12T21:21:12.469Z,4.30
2019-02-12T21:23:41.456Z,4.30
2019-02-12T21:26:10.903Z,4.20
2019-02-12T21:28:43.969Z,4.20
2019-02-12T21:31:13.026Z,4.20
2019-02-12T21:33:42.203Z,4.20
2019-02-12T21:36:11.257Z,4.10
2019-02-12T21:38:40.469Z,4.10
2019-02-12T21:41:12.657Z,4.10
2019-02-12T21:43:41.901Z,4.10
2019-02-12T21:46:10.781Z,4.10
2019-02-12T21:48:40.034Z,4.00
2019-02-12T21:51:10.691Z,4.10
2019-02-12T21:53:41.903Z,4.10
2019-02-12T21:56:11.252Z,4.10
2019-02-12T21:58:40.321Z,4.10
2019-02-12T22:01:25.395Z,4.10
2019-02-12T22:03:54.449Z,4.20
2019-02-12T22:06:24.677Z,4.20
2019-02-12T22:08:53.684Z,4.20
2019-02-12T22:11:22.810Z,4.20
2019-02-12T22:13:51.824Z,4.20
2019-02-12T22:16:20.710Z,4.20
2019-02-12T22:18:52.125Z,4.20
2019-02-12T22:21:21.845Z,4.30
2019-02-12T22:23:50.754Z,4.30
2019-02-12T22:26:19.656Z,4.30
2019-02-12T22:28:48.555Z,4.40
2019-02-12T22:31:19.278Z,4.40
2019-02-12T22:33:48.181Z,4.40
2019-02-12T22:36:19.094Z,4.40
2019-02-12T22:38:47.956Z,4.50
2019-02-12T22:41:16.921Z,4.50
2019-02-12T22:43:45.813Z,4.50
2019-02-12T22:46:15.076Z,4.50
2019-02-12T22:48:43.962Z,4.50
2019-02-12T22:51:18.702Z,4.60
2019-02-12T22:53:47.864Z,4.60
2019-02-12T22:56:16.875Z,4.60
2019-02-12T22:58:45.988Z,4.60
2019-02-12T23:01:15.179Z,4.60
2019-02-12T23:03:44.369Z,4.70
2019-02-12T23:06:13.182Z,4.60
2019-02-12T23:08:42.075Z,4.60
2019-02-12T23:11:11.374Z,4.70
2019-02-12T23:13:41.716Z,4.70
2019-02-12T23:16:10.737Z,4.70
2019-02-12T23:18:39.573Z,4.70
2019-02-12T23:21:08.960Z,4.80
2019-02-12T23:23:40.698Z,4.80
2019-02-12T23:26:11.051Z,4.80
2019-02-12T23:28:39.899Z,4.80
2019-02-12T23:31:08.838Z,4.90
2019-02-12T23:33:37.751Z,4.90
2019-02-12T23:36:06.818Z,4.90
2019-02-12T23:38:35.700Z,4.90
2019-02-12T23:41:06.735Z,4.90
2019-02-12T23:43:36.252Z,4.90
2019-02-12T23:46:05.197Z,4.90
2019-02-12T23:48:34.001Z,5.00
2019-02-12T23:51:02.954Z,5.00
2019-02-12T23:53:34.359Z,5.00
2019-02-12T23:56:04.118Z,5.00
2019-02-12T23:58:38.131Z,4.90
